Time,TemperatureF,DewpointF,PressureIn,WindDirection,WindDirectionDegrees,WindSpeedMPH,WindSpeedGustMPH,Humidity,HourlyPrecipIn,Conditions,Clouds,dailyrainin,SoftwareType,DateUTC
2013-03-04 00:08:00,33.5,25.0,29.61,WNW,282,3.0,6.0,71,0.00,,,0.00,weatherlink.com 1.10,2013-03-04 07:08:00,
2013-03-04 00:23:00,33.9,25.0,29.61,WNW,290,4.0,4.0,71,0.00,,,0.00,weatherlink.com 1.10,2013-03-04 07:23:00,
2013-03-04 00:38:00,33.7,26.0,29.61,SE,132,0.0,6.0,72,0.00,,,0.00,weatherlink.com 1.10,2013-03-04 07:38:00,
2013-03-04 00:53:00,33.5,25.0,29.61,West,263,0.0,6.0,72,0.00,,,0.00,weatherlink.com 1.10,2013-03-04 07:53:00,
2013-03-04 01:08:00,33.4,26.0,29.61,SSW,210,1.0,7.0,73,0.00,,,0.00,weatherlink.com 1.10,2013-03-04 08:08:00,
2013-03-04 01:23:00,33.1,26.0,29.61,West,273,0.0,2.0,75,0.00,,,0.00,weatherlink.com 1.10,2013-03-04 08:23:00,
2013-03-04 01:38:00,33.0,26.0,29.61,SW,226,0.0,3.0,74,0.00,,,0.00,weatherlink.com 1.10,2013-03-04 08:38:00,
2013-03-04 01:53:00,33.1,25.0,29.60,West,269,0.0,3.0,72,0.00,,,0.00,weatherlink.com 1.10,2013-03-04 08:53:00,
2013-03-04 02:08:00,33.5,25.0,29.60,WNW,291,2.0,5.0,71,0.00,,,0.00,weatherlink.com 1.10,2013-03-04 09:08:00,
2013-03-04 02:23:00,33.1,25.0,29.59,WNW,302,4.0,7.0,72,0.00,,,0.00,weatherlink.com 1.10,2013-03-04 09:23:00,
2013-03-04 02:38:00,33.4,25.0,29.59,West,259,1.0,9.0,71,0.00,,,0.00,weatherlink.com 1.10,2013-03-04 09:38:00,
2013-03-04 02:53:00,31.9,27.0,29.60,West,270,0.0,5.0,81,0.00,,,0.00,weatherlink.com 1.10,2013-03-04 09:53:00,
2013-03-04 03:08:00,31.2,27.0,29.61,WSW,250,0.0,4.0,85,0.00,,,0.00,weatherlink.com 1.10,2013-03-04 10:08:00,
2013-03-04 03:23:00,30.4,28.0,29.61,ESE,120,0.0,0.0,89,0.00,,,0.00,weatherlink.com 1.10,2013-03-04 10:23:00,
2013-03-04 03:38:00,29.9,28.0,29.61,WSW,252,0.0,2.0,91,0.00,,,0.00,weatherlink.com 1.10,2013-03-04 10:38:00,
2013-03-04 03:53:00,29.2,27.0,29.61,WNW,291,1.0,2.0,92,0.00,,,0.00,weatherlink.com 1.10,2013-03-04 10:53:00,
2013-03-04 04:08:00,28.9,27.0,29.60,WNW,294,1.0,3.0,93,0.00,,,0.00,weatherlink.com 1.10,2013-03-04 11:08:00,
2013-03-04 04:24:00,28.9,27.0,29.59,WSW,256,0.0,2.0,93,0.00,,,0.00,weatherlink.com 1.10,2013-03-04 11:24:00,
2013-03-04 04:39:00,28.6,27.0,29.58,WNW,296,3.0,3.0,93,0.00,,,0.00,weatherlink.com 1.10,2013-03-04 11:39:00,
2013-03-04 04:54:00,28.6,26.0,29.58,West,259,1.0,4.0,90,0.00,,,0.00,weatherlink.com 1.10,2013-03-04 11:54:00,
2013-03-04 05:09:00,28.2,25.0,29.59,West,278,0.0,5.0,87,0.00,,,0.00,weatherlink.com 1.10,2013-03-04 12:09:00,
2013-03-04 05:24:00,26.1,23.0,29.62,SW,226,0.0,4.0,88,0.00,,,0.00,weatherlink.com 1.10,2013-03-04 12:24:00,
2013-03-04 05:39:00,24.3,22.0,29.61,NNW,339,0.0,3.0,91,0.00,,,0.00,weatherlink.com 1.10,2013-03-04 12:39:00,
2013-03-04 05:54:00,24.1,22.0,29.62,West,271,1.0,2.0,92,0.00,,,0.00,weatherlink.com 1.10,2013-03-04 12:54:00,
2013-03-04 06:10:00,23.8,22.0,29.62,East,94,0.0,1.0,93,0.00,,,0.00,weatherlink.com 1.10,2013-03-04 13:10:00,
2013-03-04 06:24:00,23.6,22.0,29.63,ENE,70,0.0,0.0,93,0.00,,,0.00,weatherlink.com 1.10,2013-03-04 13:24:00,
2013-03-04 06:39:00,23.4,22.0,29.63,WNW,283,0.0,0.0,93,0.00,,,0.00,weatherlink.com 1.10,2013-03-04 13:39:00,
2013-03-04 06:54:00,23.6,22.0,29.63,East,96,0.0,1.0,93,0.00,,,0.00,weatherlink.com 1.10,2013-03-04 13:54:00,
2013-03-04 07:09:00,23.9,22.0,29.64,East,94,0.0,1.0,93,0.00,,,0.00,weatherlink.com 1.10,2013-03-04 14:09:00,
2013-03-04 07:24:00,24.2,22.0,29.63,ENE,70,0.0,0.0,92,0.00,,,0.00,weatherlink.com 1.10,2013-03-04 14:24:00,
2013-03-04 07:39:00,25.4,23.0,29.63,WNW,287,0.0,1.0,92,0.00,,,0.00,weatherlink.com 1.10,2013-03-04 14:39:00,
2013-03-04 07:54:00,26.6,23.0,29.63,NNE,28,1.0,4.0,86,0.00,,,0.00,weatherlink.com 1.10,2013-03-04 14:54:00,
2013-03-04 08:09:00,24.9,22.0,29.64,ENE,75,1.0,4.0,89,0.00,,,0.00,weatherlink.com 1.10,2013-03-04 15:09:00,
2013-03-04 08:24:00,24.6,22.0,29.65,ENE,63,0.0,3.0,90,0.00,,,0.00,weatherlink.com 1.10,2013-03-04 15:24:00,
2013-03-04 08:39:00,24.2,22.0,29.65,NNE,25,0.0,4.0,91,0.00,,,0.00,weatherlink.com 1.10,2013-03-04 15:39:00,
2013-03-04 08:54:00,24.3,22.0,29.65,East,100,2.0,3.0,90,0.00,,,0.00,weatherlink.com 1.10,2013-03-04 15:54:00,
2013-03-04 09:09:00,23.4,22.0,29.65,SE,136,1.0,5.0,92,0.00,,,0.00,weatherlink.com 1.10,2013-03-04 16:09:00,
2013-03-04 09:24:00,25.5,23.0,29.65,ENE,59,4.0,4.0,91,0.00,,,0.00,weatherlink.com 1.10,2013-03-04 16:24:00,
2013-03-04 09:39:00,26.9,24.0,29.64,SE,136,2.0,8.0,89,0.00,,,0.00,weatherlink.com 1.10,2013-03-04 16:39:00,
2013-03-04 09:54:00,30.4,25.0,29.64,South,191,0.0,11.0,79,0.00,,,0.00,weatherlink.com 1.10,2013-03-04 16:54:00,
2013-03-04 10:09:00,31.2,24.0,29.63,NW,304,3.0,7.0,76,0.00,,,0.00,weatherlink.com 1.10,2013-03-04 17:09:00,
2013-03-04 10:24:00,32.8,23.0,29.63,WNW,301,5.0,11.0,67,0.00,,,0.00,weatherlink.com 1.10,2013-03-04 17:24:00,
2013-03-04 10:39:00,33.8,23.0,29.63,WNW,291,3.0,11.0,64,0.00,,,0.00,weatherlink.com 1.10,2013-03-04 17:39:00,
2013-03-04 10:54:00,34.3,22.0,29.63,SW,222,4.0,14.0,60,0.00,,,0.00,weatherlink.com 1.10,2013-03-04 17:54:00,
2013-03-04 11:09:00,35.0,22.0,29.62,WNW,301,5.0,11.0,60,0.00,,,0.00,weatherlink.com 1.10,2013-03-04 18:09:00,
2013-03-04 11:24:00,34.5,23.0,29.64,ENE,77,5.0,13.0,62,0.00,,,0.00,weatherlink.com 1.10,2013-03-04 18:24:00,
2013-03-04 11:39:00,24.4,20.0,29.66,ENE,70,8.0,12.0,83,0.00,,,0.00,weatherlink.com 1.10,2013-03-04 18:39:00,
2013-03-04 11:54:00,21.5,18.0,29.70,East,80,2.0,13.0,87,0.01,,,0.01,weatherlink.com 1.10,2013-03-04 18:54:00,
2013-03-04 12:09:00,20.8,18.0,29.71,ENE,62,3.0,6.0,88,0.01,,,0.01,weatherlink.com 1.10,2013-03-04 19:09:00,
2013-03-04 12:25:00,20.0,17.0,29.72,ENE,67,3.0,6.0,88,0.01,,,0.01,weatherlink.com 1.10,2013-03-04 19:25:00,
2013-03-04 12:40:00,19.7,17.0,29.73,NE,51,0.0,6.0,88,0.01,,,0.01,weatherlink.com 1.10,2013-03-04 19:40:00,
2013-03-04 12:55:00,19.2,16.0,29.74,East,86,2.0,-999.0,88,-99.99,,,0.01,weatherlink.com 1.10,2013-03-04 19:55:00,
2013-03-04 13:10:00,20.1,17.0,29.76,ESE,107,1.0,6.0,87,0.00,,,0.01,weatherlink.com 1.10,2013-03-04 20:10:00,
2013-03-04 13:25:00,19.6,16.0,29.77,East,85,2.0,6.0,87,0.00,,,0.01,weatherlink.com 1.10,2013-03-04 20:25:00,
2013-03-04 13:40:00,20.2,16.0,29.77,ENE,60,2.0,3.0,85,0.00,,,0.01,weatherlink.com 1.10,2013-03-04 20:40:00,
2013-03-04 13:55:00,21.9,17.0,29.78,West,269,5.0,13.0,80,0.00,,,0.01,weatherlink.com 1.10,2013-03-04 20:55:00,
2013-03-04 14:10:00,21.9,16.0,29.80,WNW,295,6.0,10.0,78,0.00,,,0.01,weatherlink.com 1.10,2013-03-04 21:10:00,
2013-03-04 14:25:00,20.8,15.0,29.82,West,274,7.0,10.0,77,0.00,,,0.01,weatherlink.com 1.10,2013-03-04 21:25:00,
2013-03-04 14:40:00,20.5,15.0,29.85,WNW,297,1.0,10.0,78,0.00,,,0.01,weatherlink.com 1.10,2013-03-04 21:40:00,
2013-03-04 14:55:00,20.4,13.0,29.86,West,274,3.0,9.0,74,0.00,,,0.01,weatherlink.com 1.10,2013-03-04 21:55:00,
2013-03-04 15:10:00,20.0,11.0,29.87,WNW,294,4.0,9.0,69,0.00,,,0.01,weatherlink.com 1.10,2013-03-04 22:10:00,
2013-03-04 15:25:00,19.9,10.0,29.88,WNW,294,4.0,12.0,66,0.00,,,0.01,weatherlink.com 1.10,2013-03-04 22:25:00,
2013-03-04 15:40:00,19.5,10.0,29.89,WNW,290,6.0,12.0,66,0.00,,,0.01,weatherlink.com 1.10,2013-03-04 22:40:00,
2013-03-04 15:56:00,19.3,10.0,29.91,West,264,5.0,15.0,66,0.00,,,0.01,weatherlink.com 1.10,2013-03-04 22:56:00,
2013-03-04 16:10:00,19.2,10.0,29.93,West,281,6.0,12.0,66,0.00,,,0.01,weatherlink.com 1.10,2013-03-04 23:10:00,
2013-03-04 16:25:00,19.1,9.0,29.95,West,271,5.0,13.0,65,0.00,,,0.01,weatherlink.com 1.10,2013-03-04 23:25:00,
2013-03-04 16:40:00,18.8,10.0,29.99,West,281,3.0,17.0,69,0.00,,,0.01,weatherlink.com 1.10,2013-03-04 23:40:00,
2013-03-04 16:55:00,18.2,10.0,29.97,WNW,302,3.0,10.0,69,0.00,,,0.01,weatherlink.com 1.10,2013-03-04 23:55:00,
2013-03-04 17:11:00,18.2,10.0,29.95,West,277,10.0,17.0,70,0.00,,,0.01,weatherlink.com 1.10,2013-03-05 00:11:00,
2013-03-04 17:26:00,17.2,8.0,29.94,WNW,288,7.0,17.0,66,0.00,,,0.01,weatherlink.com 1.10,2013-03-05 00:26:00,
2013-03-04 17:41:00,16.7,7.0,29.94,West,281,10.0,20.0,67,0.00,,,0.01,weatherlink.com 1.10,2013-03-05 00:41:00,
2013-03-04 17:56:00,16.6,7.0,29.97,West,264,5.0,27.0,67,0.00,,,0.01,weatherlink.com 1.10,2013-03-05 00:56:00,
2013-03-04 18:11:00,16.4,7.0,29.97,WNW,284,8.0,22.0,66,0.00,,,0.01,weatherlink.com 1.10,2013-03-05 01:11:00,
2013-03-04 18:26:00,16.0,8.0,29.98,WNW,295,3.0,28.0,70,0.00,,,0.01,weatherlink.com 1.10,2013-03-05 01:26:00,
2013-03-04 18:41:00,15.8,8.0,29.98,NW,316,12.0,23.0,70,0.00,,,0.01,weatherlink.com 1.10,2013-03-05 01:41:00,
2013-03-04 18:56:00,15.7,8.0,29.99,West,281,12.0,28.0,70,0.00,,,0.01,weatherlink.com 1.10,2013-03-05 01:56:00,
2013-03-04 19:11:00,15.8,7.0,30.02,West,264,12.0,29.0,67,0.00,,,0.01,weatherlink.com 1.10,2013-03-05 02:11:00,
2013-03-04 19:26:00,15.6,6.0,30.02,WNW,293,11.0,22.0,66,0.00,,,0.01,weatherlink.com 1.10,2013-03-05 02:26:00,
2013-03-04 19:41:00,15.6,5.0,30.05,WNW,290,4.0,25.0,63,0.00,,,0.01,weatherlink.com 1.10,2013-03-05 02:41:00,
2013-03-04 19:56:00,15.4,4.0,30.06,WSW,238,4.0,33.0,60,0.00,,,0.01,weatherlink.com 1.10,2013-03-05 02:56:00,
2013-03-04 20:11:00,15.3,3.0,30.07,West,269,5.0,26.0,58,0.00,,,0.01,weatherlink.com 1.10,2013-03-05 03:11:00,
2013-03-04 20:26:00,15.2,2.0,30.09,SSW,212,6.0,25.0,57,0.00,,,0.01,weatherlink.com 1.10,2013-03-05 03:26:00,
2013-03-04 20:41:00,15.2,2.0,30.11,East,94,6.0,19.0,57,0.00,,,0.01,weatherlink.com 1.10,2013-03-05 03:41:00,
2013-03-04 20:56:00,15.2,2.0,30.13,NE,43,3.0,13.0,56,0.00,,,0.01,weatherlink.com 1.10,2013-03-05 03:56:00,
2013-03-04 21:11:00,15.1,2.0,30.14,WNW,292,2.0,11.0,55,0.00,,,0.01,weatherlink.com 1.10,2013-03-05 04:11:00,
2013-03-04 21:26:00,15.8,0.0,30.13,WNW,289,4.0,18.0,49,0.00,,,0.01,weatherlink.com 1.10,2013-03-05 04:26:00,
2013-03-04 21:41:00,15.7,-1.0,30.16,West,269,1.0,9.0,49,0.00,,,0.01,weatherlink.com 1.10,2013-03-05 04:41:00,
2013-03-04 21:56:00,16.0,-2.0,30.17,NW,321,5.0,13.0,46,0.00,,,0.01,weatherlink.com 1.10,2013-03-05 04:56:00,
2013-03-04 22:11:00,16.4,-1.0,30.19,West,273,4.0,15.0,47,0.00,,,0.01,weatherlink.com 1.10,2013-03-05 05:11:00,
2013-03-04 22:26:00,16.2,0.0,30.20,WSW,246,2.0,27.0,49,0.00,,,0.01,weatherlink.com 1.10,2013-03-05 05:26:00,
2013-03-04 22:42:00,15.4,1.0,30.21,West,269,4.0,9.0,53,0.00,,,0.01,weatherlink.com 1.10,2013-03-05 05:42:00,
2013-03-04 22:57:00,14.8,2.0,30.21,WNW,299,2.0,7.0,57,0.00,,,0.01,weatherlink.com 1.10,2013-03-05 05:57:00,
2013-03-04 23:12:00,14.8,3.0,30.21,NW,305,7.0,14.0,59,0.00,,,0.01,weatherlink.com 1.10,2013-03-05 06:12:00,
2013-03-04 23:27:00,15.1,4.0,30.23,SW,219,2.0,15.0,61,0.00,,,0.01,weatherlink.com 1.10,2013-03-05 06:27:00,
2013-03-04 23:42:00,14.8,3.0,30.24,WNW,291,1.0,9.0,60,0.00,,,0.01,weatherlink.com 1.10,2013-03-05 06:42:00,
2013-03-04 23:57:00,15.2,3.0,30.23,ENE,63,0.0,15.0,58,0.00,,,0.01,weatherlink.com 1.10,2013-03-05 06:57:00,